Austell, Georgia
Current Conditions -  °F | °C
As of 1:53 AM on Thursday 18 Dec 2014 (Local Time) from KFTY Reporting Station
Clear Clear  
Wind Chill: 35°   Ceiling: Unl
Heat Index: 39°   Visibility: 10mi
Dew Point: 32°   Wind: 6mph
Humidity: 76%   Direction: 340°NNW
Pressure: 30.13"   Gusts: NA
Location:  33.82°N, 84.64°W
Report Text: KFTY 180653Z 34005KT 10SM CLR 04/00 A3013 RMK AO2 SLP206 T00390000
Loading
Personal Weather Stations






























Interactive Weather Map New forecast layout! Learn more

10-Day Weather Forecast

Advertisements
Track Severe Weather on mobile